Time;durP1;ratioP1;P1;durP2;ratioP2;P2;SDS_P1;SDS_P2;PMS_P1;PMS_P2;Temp;Humidity;BMP_temperature;BMP_pressure;BME280_temperature;BME280_humidity;BME280_pressure;Samples;Min_cycle;Max_cycle;Signal;HPM_P1;HPM_P2
2022/08/11 00:03:08;;;;;;;3.90;2.60;;;;;;;;;;10400751;28;20219;-71
2022/08/11 00:08:10;;;;;;;8.70;2.33;;;;;;;;;;10404257;28;20224;-71
2022/08/11 00:13:11;;;;;;;4.77;2.30;;;;;;;;;;10412777;28;20220;-71
2022/08/11 00:18:13;;;;;;;4.07;2.60;;;;;;;;;;10411073;28;20235;-73
2022/08/11 00:23:18;;;;;;;4.60;2.77;;;;;;;;;;10398008;28;20573;-72
2022/08/11 00:28:32;;;;;;;4.47;2.93;;;;;;;;;;10411453;28;20217;-71
2022/08/11 00:33:45;;;;;;;6.80;2.80;;;;;;;;;;10402303;28;20650;-72
2022/08/11 00:38:49;;;;;;;3.40;2.77;;;;;;;;;;10405725;28;20228;-70
2022/08/11 00:43:59;;;;;;;4.77;2.83;;;;;;;;;;10396640;28;20738;-71
2022/08/11 00:49:18;;;;;;;4.17;2.60;;;;;;;;;;10407310;28;20232;-71
2022/08/11 00:54:20;;;;;;;3.90;2.40;;;;;;;;;;10407381;28;20599;-70
2022/08/11 00:59:40;;;;;;;8.03;2.70;;;;;;;;;;10401946;28;20230;-72
2022/08/11 01:04:53;;;;;;;3.80;2.30;;;;;;;;;;10399342;28;20244;-71
2022/08/11 01:10:03;;;;;;;4.47;2.30;;;;;;;;;;10394157;28;20318;-73
2022/08/11 01:15:07;;;;;;;2.80;2.30;;;;;;;;;;10407417;28;20621;-72
2022/08/11 01:20:26;;;;;;;4.60;2.40;;;;;;;;;;10395247;28;20225;-72
2022/08/11 01:25:27;;;;;;;6.70;2.90;;;;;;;;;;10401463;28;20224;-71
2022/08/11 01:30:28;;;;;;;4.67;2.60;;;;;;;;;;10401158;28;20239;-71
2022/08/11 01:35:48;;;;;;;4.97;2.90;;;;;;;;;;10413209;28;20224;-73
2022/08/11 01:40:55;;;;;;;3.53;2.60;;;;;;;;;;10392838;28;20224;-72
2022/08/11 01:46:02;;;;;;;4.77;2.80;;;;;;;;;;10401418;28;20221;-71
2022/08/11 01:51:03;;;;;;;2.77;2.50;;;;;;;;;;10398512;28;20252;-72
2022/08/11 01:56:16;;;;;;;4.43;2.70;;;;;;;;;;10410354;28;20327;-73
2022/08/11 02:01:19;;;;;;;3.93;2.73;;;;;;;;;;10406235;28;20228;-71
2022/08/11 02:11:43;;;;;;;2.70;2.50;;;;;;;;;;10401415;28;20228;-72
2022/08/11 02:16:53;;;;;;;3.30;2.47;;;;;;;;;;10401931;28;20236;-71
2022/08/11 02:27:24;;;;;;;6.07;2.80;;;;;;;;;;10407038;28;20236;-72
2022/08/11 02:38:12;;;;;;;3.00;2.60;;;;;;;;;;10404671;28;20224;-72
2022/08/11 02:43:21;;;;;;;4.13;3.00;;;;;;;;;;10414435;28;20266;-72
2022/08/11 02:54:16;;;;;;;6.17;3.43;;;;;;;;;;10402052;28;20213;-70
2022/08/11 03:04:39;;;;;;;4.27;3.10;;;;;;;;;;10400681;28;20697;-71
2022/08/11 03:09:44;;;;;;;8.97;3.57;;;;;;;;;;10408035;28;20224;-71
2022/08/11 03:20:09;;;;;;;4.70;3.40;;;;;;;;;;10398113;28;20212;-70
2022/08/11 03:25:30;;;;;;;6.03;3.40;;;;;;;;;;10397930;28;20562;-71
2022/08/11 03:30:40;;;;;;;4.23;3.20;;;;;;;;;;10405917;28;20236;-71
2022/08/11 03:35:44;;;;;;;4.50;3.67;;;;;;;;;;10399592;28;20312;-71
2022/08/11 03:46:20;;;;;;;15.43;7.13;;;;;;;;;;10399881;28;20271;-72
2022/08/11 03:51:50;;;;;;;6.53;5.43;;;;;;;;;;10402996;28;20216;-72
2022/08/11 03:57:10;;;;;;;11.13;6.17;;;;;;;;;;10403221;28;20637;-72
2022/08/11 04:02:20;;;;;;;14.17;7.20;;;;;;;;;;10404873;28;20337;-72
2022/08/11 04:07:37;;;;;;;11.10;7.90;;;;;;;;;;10405737;28;20224;-73
2022/08/11 04:12:41;;;;;;;12.30;7.67;;;;;;;;;;10386625;28;20254;-70
2022/08/11 04:17:49;;;;;;;13.07;7.77;;;;;;;;;;10411693;28;20220;-72
2022/08/11 04:23:10;;;;;;;11.43;7.07;;;;;;;;;;10398488;28;20225;-72
2022/08/11 04:28:22;;;;;;;10.80;6.60;;;;;;;;;;10408707;28;20242;-72
2022/08/11 04:33:30;;;;;;;9.47;5.97;;;;;;;;;;10398120;28;20232;-72
2022/08/11 04:38:34;;;;;;;7.90;4.77;;;;;;;;;;10408956;28;20695;-69
2022/08/11 04:43:44;;;;;;;6.83;4.00;;;;;;;;;;10395153;28;20267;-69
2022/08/11 05:05:30;;;;;;;8.70;3.97;;;;;;;;;;10396357;28;20224;-71
2022/08/11 05:10:49;;;;;;;11.63;3.90;;;;;;;;;;10392421;28;20233;-69
2022/08/11 05:37:30;;;;;;;6.63;3.43;;;;;;;;;;10402403;28;20262;-69
2022/08/11 05:58:34;;;;;;;7.77;3.33;;;;;;;;;;10400288;28;20594;-71
2022/08/11 06:04:12;;;;;;;6.97;3.30;;;;;;;;;;10397801;28;20312;-69
2022/08/11 06:08:57;;;;;;;4.90;3.23;;;;;;;;;;10400932;28;20251;-72
2022/08/11 06:14:01;;;;;;;6.37;2.83;;;;;;;;;;10413913;28;20286;-71
2022/08/11 06:19:04;;;;;;;9.23;3.20;;;;;;;;;;10404145;28;20848;-71
2022/08/11 06:24:16;;;;;;;10.60;3.27;;;;;;;;;;10399995;28;20223;-70
2022/08/11 06:29:17;;;;;;;9.87;3.20;;;;;;;;;;10406017;28;20262;-69
2022/08/11 06:34:37;;;;;;;8.33;3.70;;;;;;;;;;10409729;28;20220;-68
2022/08/11 06:39:39;;;;;;;9.93;3.10;;;;;;;;;;10408672;28;20743;-70
2022/08/11 06:44:42;;;;;;;9.47;2.80;;;;;;;;;;10411909;28;20221;-69
2022/08/11 07:00:26;;;;;;;11.57;3.30;;;;;;;;;;10399291;28;20212;-70
2022/08/11 07:00:41;;;;;;;8.90;3.10;;;;;;;;;;10409316;28;20244;-69
2022/08/11 07:05:54;;;;;;;8.10;3.00;;;;;;;;;;10384470;28;20220;-70
2022/08/11 07:16:28;;;;;;;5.97;2.90;;;;;;;;;;10383246;28;20264;-69
2022/08/11 07:32:14;;;;;;;8.30;2.97;;;;;;;;;;10403311;28;20212;-69
2022/08/11 07:37:22;;;;;;;3.00;2.70;;;;;;;;;;10401922;28;20290;-68
2022/08/11 07:42:36;;;;;;;6.27;2.70;;;;;;;;;;10393585;28;20224;-68
2022/08/11 07:52:59;;;;;;;6.90;2.70;;;;;;;;;;10398305;28;20644;-71
2022/08/11 08:19:22;;;;;;;4.87;2.60;;;;;;;;;;10412187;28;20680;-71
2022/08/11 08:24:23;;;;;;;4.07;2.37;;;;;;;;;;10409431;28;20677;-71
2022/08/11 08:34:55;;;;;;;2.73;2.10;;;;;;;;;;10396191;28;20684;-72
2022/08/11 08:39:57;;;;;;;6.63;2.73;;;;;;;;;;10409348;28;20684;-70
2022/08/11 08:45:03;;;;;;;4.03;2.60;;;;;;;;;;10411829;28;20268;-71
2022/08/11 08:50:06;;;;;;;6.03;2.90;;;;;;;;;;10390606;28;20243;-71
2022/08/11 08:55:09;;;;;;;2.67;2.00;;;;;;;;;;10391037;28;20259;-72
2022/08/11 09:00:13;;;;;;;6.20;2.20;;;;;;;;;;10390131;28;20181;-71
2022/08/11 09:05:16;;;;;;;7.23;2.30;;;;;;;;;;10408053;28;20196;-73
2022/08/11 09:10:19;;;;;;;3.87;1.90;;;;;;;;;;10408738;28;20224;-71
2022/08/11 09:15:21;;;;;;;2.30;1.87;;;;;;;;;;10409374;28;20247;-72
2022/08/11 09:20:24;;;;;;;3.23;2.10;;;;;;;;;;10408955;28;20191;-71
2022/08/11 09:30:54;;;;;;;4.07;2.03;;;;;;;;;;10405771;28;20248;-70
2022/08/11 09:35:55;;;;;;;5.37;2.07;;;;;;;;;;10406588;28;20617;-71
2022/08/11 09:40:58;;;;;;;2.00;1.80;;;;;;;;;;10389354;28;20589;-71
2022/08/11 09:46:00;;;;;;;3.53;2.20;;;;;;;;;;10404022;28;20279;-70
2022/08/11 09:51:01;;;;;;;3.93;2.17;;;;;;;;;;10400337;28;20260;-72
2022/08/11 09:58:12;;;;;;;3.23;2.20;;;;;;;;;;10391096;28;20619;-70
2022/08/11 10:01:30;;;;;;;3.60;2.30;;;;;;;;;;10392366;28;20217;-70
2022/08/11 10:11:56;;;;;;;5.50;2.17;;;;;;;;;;10395387;28;20290;-70
2022/08/11 10:16:58;;;;;;;3.47;2.20;;;;;;;;;;10391544;28;20225;-71
2022/08/11 10:27:19;;;;;;;2.20;2.00;;;;;;;;;;10404588;28;20220;-71
2022/08/11 10:37:45;;;;;;;3.53;1.90;;;;;;;;;;10400433;28;20221;-70
2022/08/11 10:43:02;;;;;;;4.50;1.80;;;;;;;;;;10404549;28;20217;-70
2022/08/11 10:48:05;;;;;;;3.90;2.00;;;;;;;;;;10411023;28;20228;-71
2022/08/11 11:03:46;;;;;;;3.43;2.03;;;;;;;;;;10408431;28;20213;-71
2022/08/11 11:08:52;;;;;;;8.57;2.43;;;;;;;;;;10414310;28;20246;-70
2022/08/11 11:19:21;;;;;;;6.60;2.63;;;;;;;;;;10407229;28;20596;-71
2022/08/11 11:24:45;;;;;;;5.47;2.30;;;;;;;;;;10399545;28;20227;-70
2022/08/11 11:29:46;;;;;;;5.53;2.10;;;;;;;;;;10407482;28;20228;-70
2022/08/11 11:35:08;;;;;;;3.73;2.40;;;;;;;;;;10383037;28;20240;-69
2022/08/11 11:40:14;;;;;;;2.80;2.50;;;;;;;;;;10398742;28;20321;-71
2022/08/11 11:45:16;;;;;;;5.17;2.70;;;;;;;;;;10394443;28;20182;-71
2022/08/11 11:50:22;;;;;;;5.70;3.50;;;;;;;;;;10398883;28;20304;-70
2022/08/11 11:55:24;;;;;;;4.23;2.97;;;;;;;;;;10396801;28;20198;-70
2022/08/11 12:05:45;;;;;;;7.47;2.90;;;;;;;;;;10399694;28;20303;-70
2022/08/11 12:10:47;;;;;;;5.37;2.33;;;;;;;;;;10396438;28;20244;-70
2022/08/11 12:15:48;;;;;;;6.17;2.50;;;;;;;;;;10390141;28;20225;-71
2022/08/11 12:20:49;;;;;;;5.87;2.67;;;;;;;;;;10400758;28;20228;-70
2022/08/11 12:31:10;;;;;;;3.67;2.90;;;;;;;;;;10387251;28;20227;-71
2022/08/11 12:36:15;;;;;;;4.63;2.83;;;;;;;;;;10404965;28;20699;-70
2022/08/11 12:46:37;;;;;;;6.00;2.60;;;;;;;;;;10400443;28;20220;-74
2022/08/11 12:52:00;;;;;;;6.83;2.60;;;;;;;;;;10400416;28;20305;-69
2022/08/11 13:07:50;;;;;;;2.77;2.10;;;;;;;;;;10394608;28;20220;-69
2022/08/11 13:12:52;;;;;;;4.87;2.30;;;;;;;;;;10404670;28;20695;-70
2022/08/11 13:17:54;;;;;;;5.60;2.60;;;;;;;;;;10392692;28;20239;-69
2022/08/11 13:22:58;;;;;;;4.80;2.30;;;;;;;;;;10387548;28;20295;-71
2022/08/11 13:28:00;;;;;;;4.90;2.23;;;;;;;;;;10378463;28;20220;-70
2022/08/11 13:33:02;;;;;;;9.67;2.87;;;;;;;;;;10397551;28;20378;-71
2022/08/11 13:38:04;;;;;;;2.77;2.47;;;;;;;;;;10388692;28;20232;-70
2022/08/11 13:43:06;;;;;;;4.47;2.20;;;;;;;;;;10383266;28;20237;-70
2022/08/11 13:48:11;;;;;;;2.60;2.40;;;;;;;;;;10396773;28;20249;-70
2022/08/11 13:53:19;;;;;;;7.73;2.50;;;;;;;;;;10380880;28;20240;-69
2022/08/11 13:58:23;;;;;;;8.87;2.60;;;;;;;;;;10394848;28;20217;-70
2022/08/11 14:03:25;;;;;;;2.40;2.20;;;;;;;;;;10387246;28;20222;-70
2022/08/11 14:08:28;;;;;;;7.07;2.63;;;;;;;;;;10396823;28;20240;-72
2022/08/11 14:13:38;;;;;;;8.33;2.30;;;;;;;;;;10405535;28;20243;-70
2022/08/11 14:18:44;;;;;;;6.40;2.40;;;;;;;;;;10401806;28;20232;-71
2022/08/11 14:23:54;;;;;;;4.53;2.10;;;;;;;;;;10375523;28;20221;-72
2022/08/11 14:28:59;;;;;;;3.00;1.93;;;;;;;;;;10387840;28;20803;-71
2022/08/11 14:34:04;;;;;;;3.00;2.00;;;;;;;;;;10400642;28;20703;-68
2022/08/11 14:39:13;;;;;;;6.20;1.97;;;;;;;;;;10409536;28;20308;-70
2022/08/11 14:49:37;;;;;;;3.33;2.30;;;;;;;;;;10400208;28;20615;-71
2022/08/11 15:00:02;;;;;;;4.93;2.00;;;;;;;;;;10405014;28;20224;-70
2022/08/11 15:05:08;;;;;;;2.37;2.13;;;;;;;;;;10414754;28;20775;-70
2022/08/11 15:10:10;;;;;;;7.07;2.03;;;;;;;;;;10407681;28;20687;-71
2022/08/11 15:25:56;;;;;;;3.47;2.10;;;;;;;;;;10402786;28;20244;-73
2022/08/11 15:47:19;;;;;;;2.37;2.17;;;;;;;;;;10410196;28;20232;-73
2022/08/11 15:52:26;;;;;;;3.90;2.10;;;;;;;;;;10413635;28;20217;-73
2022/08/11 16:08:22;;;;;;;5.87;2.13;;;;;;;;;;10397775;28;20236;-73
2022/08/11 16:18:39;;;;;;;6.90;2.50;;;;;;;;;;10402176;28;20235;-72
2022/08/11 16:23:42;;;;;;;3.77;2.50;;;;;;;;;;10392812;28;20220;-73
2022/08/11 16:28:45;;;;;;;3.10;2.20;;;;;;;;;;10395079;28;20244;-73
2022/08/11 16:38:34;;;;;;;4.00;2.10;;;;;;;;;;10394840;28;20266;-72
2022/08/11 16:39:33;;;;;;;2.70;2.00;;;;;;;;;;10404479;28;20255;-73
2022/08/11 16:49:55;;;;;;;6.57;2.23;;;;;;;;;;10397158;28;20240;-71
2022/08/11 16:54:56;;;;;;;3.70;2.50;;;;;;;;;;10395431;28;20229;-73
2022/08/11 17:00:00;;;;;;;3.67;2.40;;;;;;;;;;10401560;28;20228;-73
2022/08/11 17:16:07;;;;;;;5.30;2.40;;;;;;;;;;10400604;28;20666;-72
2022/08/11 17:21:11;;;;;;;4.10;2.53;;;;;;;;;;10391998;28;20256;-73
2022/08/11 17:26:20;;;;;;;4.87;2.20;;;;;;;;;;10390526;28;20692;-73
2022/08/11 17:36:43;;;;;;;4.87;1.93;;;;;;;;;;10388202;28;20229;-72
